sensor_id;sensor_type;location;lat;lon;timestamp;P1;durP1;ratioP1;P2;durP2;ratioP2
29546;SDS011;40782;47.264;11.330;2022-12-29T00:00:04;16.08;;;11.30;;
29546;SDS011;40782;47.264;11.330;2022-12-29T00:02:33;15.52;;;10.70;;
29546;SDS011;40782;47.264;11.330;2022-12-29T00:05:00;15.80;;;11.90;;
29546;SDS011;40782;47.264;11.330;2022-12-29T00:07:29;17.45;;;10.95;;
29546;SDS011;40782;47.264;11.330;2022-12-29T00:09:56;17.33;;;10.73;;
29546;SDS011;40782;47.264;11.330;2022-12-29T00:12:23;16.83;;;10.25;;
29546;SDS011;40782;47.264;11.330;2022-12-29T00:15:10;19.25;;;10.82;;
29546;SDS011;40782;47.264;11.330;2022-12-29T00:17:55;19.52;;;11.30;;
29546;SDS011;40782;47.264;11.330;2022-12-29T00:20:22;15.98;;;10.10;;
29546;SDS011;40782;47.264;11.330;2022-12-29T00:23:09;14.95;;;10.52;;
29546;SDS011;40782;47.264;11.330;2022-12-29T00:25:53;17.45;;;11.00;;
29546;SDS011;40782;47.264;11.330;2022-12-29T00:28:38;15.68;;;10.43;;
29546;SDS011;40782;47.264;11.330;2022-12-29T00:31:23;22.23;;;11.70;;
29546;SDS011;40782;47.264;11.330;2022-12-29T00:34:08;18.85;;;11.07;;
29546;SDS011;40782;47.264;11.330;2022-12-29T00:36:55;14.43;;;10.45;;
29546;SDS011;40782;47.264;11.330;2022-12-29T00:39:24;19.00;;;10.93;;
29546;SDS011;40782;47.264;11.330;2022-12-29T00:42:09;15.38;;;10.35;;
29546;SDS011;40782;47.264;11.330;2022-12-29T00:44:53;14.95;;;9.95;;
29546;SDS011;40782;47.264;11.330;2022-12-29T00:47:20;17.35;;;11.20;;
29546;SDS011;40782;47.264;11.330;2022-12-29T00:49:47;14.57;;;10.13;;
29546;SDS011;40782;47.264;11.330;2022-12-29T00:52:13;15.48;;;10.30;;
29546;SDS011;40782;47.264;11.330;2022-12-29T00:54:42;15.27;;;9.07;;
29546;SDS011;40782;47.264;11.330;2022-12-29T00:57:10;16.30;;;9.73;;
29546;SDS011;40782;47.264;11.330;2022-12-29T00:59:39;16.40;;;9.93;;
29546;SDS011;40782;47.264;11.330;2022-12-29T01:02:07;15.13;;;9.43;;
29546;SDS011;40782;47.264;11.330;2022-12-29T01:04:34;18.05;;;10.43;;
29546;SDS011;40782;47.264;11.330;2022-12-29T01:07:02;14.60;;;9.82;;
29546;SDS011;40782;47.264;11.330;2022-12-29T01:09:29;13.45;;;9.07;;
29546;SDS011;40782;47.264;11.330;2022-12-29T01:12:16;14.45;;;8.95;;
29546;SDS011;40782;47.264;11.330;2022-12-29T01:15:03;15.15;;;9.43;;
29546;SDS011;40782;47.264;11.330;2022-12-29T01:17:31;16.20;;;9.88;;
29546;SDS011;40782;47.264;11.330;2022-12-29T01:19:58;14.00;;;9.10;;
29546;SDS011;40782;47.264;11.330;2022-12-29T01:22:25;12.13;;;8.93;;
29546;SDS011;40782;47.264;11.330;2022-12-29T01:24:53;16.95;;;8.80;;
29546;SDS011;40782;47.264;11.330;2022-12-29T01:27:22;12.88;;;8.50;;
29546;SDS011;40782;47.264;11.330;2022-12-29T01:29:49;12.82;;;8.90;;
29546;SDS011;40782;47.264;11.330;2022-12-29T01:32:16;13.07;;;8.75;;
29546;SDS011;40782;47.264;11.330;2022-12-29T01:34:43;15.32;;;9.13;;
29546;SDS011;40782;47.264;11.330;2022-12-29T01:37:10;14.88;;;8.70;;
29546;SDS011;40782;47.264;11.330;2022-12-29T01:39:38;14.50;;;8.88;;
29546;SDS011;40782;47.264;11.330;2022-12-29T01:42:05;12.63;;;8.52;;
29546;SDS011;40782;47.264;11.330;2022-12-29T01:44:51;14.82;;;9.57;;
29546;SDS011;40782;47.264;11.330;2022-12-29T01:47:25;14.88;;;9.02;;
29546;SDS011;40782;47.264;11.330;2022-12-29T01:49:57;11.70;;;8.77;;
29546;SDS011;40782;47.264;11.330;2022-12-29T01:52:28;14.18;;;8.90;;
29546;SDS011;40782;47.264;11.330;2022-12-29T01:54:58;14.63;;;9.07;;
29546;SDS011;40782;47.264;11.330;2022-12-29T01:57:29;14.20;;;9.15;;
29546;SDS011;40782;47.264;11.330;2022-12-29T02:00:03;14.55;;;9.15;;
29546;SDS011;40782;47.264;11.330;2022-12-29T02:02:33;13.95;;;8.73;;
29546;SDS011;40782;47.264;11.330;2022-12-29T02:05:02;15.75;;;8.55;;
29546;SDS011;40782;47.264;11.330;2022-12-29T02:07:37;13.55;;;7.50;;
29546;SDS011;40782;47.264;11.330;2022-12-29T02:10:05;11.85;;;8.23;;
29546;SDS011;40782;47.264;11.330;2022-12-29T02:12:33;12.40;;;8.35;;
29546;SDS011;40782;47.264;11.330;2022-12-29T02:15:02;12.05;;;7.85;;
29546;SDS011;40782;47.264;11.330;2022-12-29T02:17:39;12.98;;;8.50;;
29546;SDS011;40782;47.264;11.330;2022-12-29T02:20:33;13.18;;;8.82;;
29546;SDS011;40782;47.264;11.330;2022-12-29T02:23:19;12.60;;;8.32;;
29546;SDS011;40782;47.264;11.330;2022-12-29T02:29:00;12.85;;;8.45;;
29546;SDS011;40782;47.264;11.330;2022-12-29T02:31:51;10.07;;;7.55;;
29546;SDS011;40782;47.264;11.330;2022-12-29T02:34:26;9.80;;;7.38;;
29546;SDS011;40782;47.264;11.330;2022-12-29T02:37:06;11.82;;;8.20;;
29546;SDS011;40782;47.264;11.330;2022-12-29T02:39:40;11.48;;;7.53;;
29546;SDS011;40782;47.264;11.330;2022-12-29T02:42:17;13.20;;;8.18;;
29546;SDS011;40782;47.264;11.330;2022-12-29T02:44:55;10.20;;;7.10;;
29546;SDS011;40782;47.264;11.330;2022-12-29T02:47:29;11.82;;;7.60;;
29546;SDS011;40782;47.264;11.330;2022-12-29T02:50:03;11.40;;;7.38;;
29546;SDS011;40782;47.264;11.330;2022-12-29T02:52:34;10.50;;;7.25;;
29546;SDS011;40782;47.264;11.330;2022-12-29T02:55:05;9.27;;;6.55;;
29546;SDS011;40782;47.264;11.330;2022-12-29T02:57:32;12.20;;;7.00;;
29546;SDS011;40782;47.264;11.330;2022-12-29T03:00:03;8.68;;;7.03;;
29546;SDS011;40782;47.264;11.330;2022-12-29T03:05:30;10.70;;;6.72;;
29546;SDS011;40782;47.264;11.330;2022-12-29T03:08:21;11.63;;;6.82;;
29546;SDS011;40782;47.264;11.330;2022-12-29T03:10:55;10.25;;;6.50;;
29546;SDS011;40782;47.264;11.330;2022-12-29T03:13:28;13.25;;;7.10;;
29546;SDS011;40782;47.264;11.330;2022-12-29T03:16:20;10.30;;;7.30;;
29546;SDS011;40782;47.264;11.330;2022-12-29T03:18:57;9.40;;;6.70;;
29546;SDS011;40782;47.264;11.330;2022-12-29T03:21:29;9.60;;;7.32;;
29546;SDS011;40782;47.264;11.330;2022-12-29T03:24:17;9.18;;;6.80;;
29546;SDS011;40782;47.264;11.330;2022-12-29T03:26:47;9.75;;;7.50;;
29546;SDS011;40782;47.264;11.330;2022-12-29T03:29:15;12.45;;;7.28;;
29546;SDS011;40782;47.264;11.330;2022-12-29T03:31:44;10.63;;;6.88;;
29546;SDS011;40782;47.264;11.330;2022-12-29T03:34:15;11.60;;;7.00;;
29546;SDS011;40782;47.264;11.330;2022-12-29T03:36:45;10.27;;;6.80;;
29546;SDS011;40782;47.264;11.330;2022-12-29T03:39:17;10.90;;;7.18;;
29546;SDS011;40782;47.264;11.330;2022-12-29T03:41:47;8.80;;;6.43;;
29546;SDS011;40782;47.264;11.330;2022-12-29T03:44:17;10.43;;;7.45;;
29546;SDS011;40782;47.264;11.330;2022-12-29T03:46:44;10.18;;;6.65;;
29546;SDS011;40782;47.264;11.330;2022-12-29T03:49:11;9.93;;;6.35;;
29546;SDS011;40782;47.264;11.330;2022-12-29T03:51:40;11.00;;;6.93;;
29546;SDS011;40782;47.264;11.330;2022-12-29T03:54:07;9.05;;;6.43;;
29546;SDS011;40782;47.264;11.330;2022-12-29T03:56:34;8.30;;;6.32;;
29546;SDS011;40782;47.264;11.330;2022-12-29T03:59:01;12.32;;;6.00;;
29546;SDS011;40782;47.264;11.330;2022-12-29T04:01:28;10.27;;;6.22;;
29546;SDS011;40782;47.264;11.330;2022-12-29T04:03:56;9.45;;;6.30;;
29546;SDS011;40782;47.264;11.330;2022-12-29T04:06:23;7.95;;;6.03;;
29546;SDS011;40782;47.264;11.330;2022-12-29T04:08:51;8.63;;;6.40;;
29546;SDS011;40782;47.264;11.330;2022-12-29T04:11:19;10.13;;;6.45;;
29546;SDS011;40782;47.264;11.330;2022-12-29T04:13:47;9.60;;;6.13;;
29546;SDS011;40782;47.264;11.330;2022-12-29T04:16:14;10.00;;;6.45;;
29546;SDS011;40782;47.264;11.330;2022-12-29T04:18:41;7.22;;;6.10;;
29546;SDS011;40782;47.264;11.330;2022-12-29T04:21:08;7.53;;;5.97;;
29546;SDS011;40782;47.264;11.330;2022-12-29T04:23:36;9.68;;;6.57;;
29546;SDS011;40782;47.264;11.330;2022-12-29T04:26:06;9.45;;;7.10;;
29546;SDS011;40782;47.264;11.330;2022-12-29T04:28:34;10.15;;;6.55;;
29546;SDS011;40782;47.264;11.330;2022-12-29T04:31:01;8.95;;;6.35;;
29546;SDS011;40782;47.264;11.330;2022-12-29T04:33:29;11.73;;;7.13;;
29546;SDS011;40782;47.264;11.330;2022-12-29T04:35:56;11.07;;;6.25;;
29546;SDS011;40782;47.264;11.330;2022-12-29T04:38:23;10.35;;;6.93;;
29546;SDS011;40782;47.264;11.330;2022-12-29T04:40:51;10.43;;;6.88;;
29546;SDS011;40782;47.264;11.330;2022-12-29T04:43:19;9.73;;;6.38;;
29546;SDS011;40782;47.264;11.330;2022-12-29T04:45:48;9.18;;;6.45;;
29546;SDS011;40782;47.264;11.330;2022-12-29T04:48:15;12.27;;;6.55;;
29546;SDS011;40782;47.264;11.330;2022-12-29T04:50:42;8.90;;;6.35;;
29546;SDS011;40782;47.264;11.330;2022-12-29T04:53:10;9.23;;;6.03;;
29546;SDS011;40782;47.264;11.330;2022-12-29T04:55:37;8.45;;;6.18;;
29546;SDS011;40782;47.264;11.330;2022-12-29T04:58:04;8.35;;;6.10;;
29546;SDS011;40782;47.264;11.330;2022-12-29T05:00:33;10.15;;;6.88;;
29546;SDS011;40782;47.264;11.330;2022-12-29T05:03:00;8.93;;;6.38;;
29546;SDS011;40782;47.264;11.330;2022-12-29T05:05:28;10.73;;;7.28;;
29546;SDS011;40782;47.264;11.330;2022-12-29T05:07:55;10.57;;;6.40;;
29546;SDS011;40782;47.264;11.330;2022-12-29T05:10:22;10.45;;;6.35;;
29546;SDS011;40782;47.264;11.330;2022-12-29T05:12:49;10.52;;;6.00;;
29546;SDS011;40782;47.264;11.330;2022-12-29T05:15:16;8.95;;;6.55;;
29546;SDS011;40782;47.264;11.330;2022-12-29T05:20:44;8.95;;;6.10;;
29546;SDS011;40782;47.264;11.330;2022-12-29T05:23:11;9.85;;;5.80;;
29546;SDS011;40782;47.264;11.330;2022-12-29T05:25:39;10.32;;;6.50;;
29546;SDS011;40782;47.264;11.330;2022-12-29T05:28:06;9.38;;;6.20;;
29546;SDS011;40782;47.264;11.330;2022-12-29T05:30:33;11.27;;;5.85;;
29546;SDS011;40782;47.264;11.330;2022-12-29T05:33:00;8.23;;;6.07;;
29546;SDS011;40782;47.264;11.330;2022-12-29T05:35:29;8.07;;;5.80;;
29546;SDS011;40782;47.264;11.330;2022-12-29T05:37:56;8.13;;;5.88;;
29546;SDS011;40782;47.264;11.330;2022-12-29T05:40:23;10.13;;;6.15;;
29546;SDS011;40782;47.264;11.330;2022-12-29T05:42:50;7.90;;;5.55;;
29546;SDS011;40782;47.264;11.330;2022-12-29T05:45:18;7.93;;;5.70;;
29546;SDS011;40782;47.264;11.330;2022-12-29T05:47:45;9.45;;;5.60;;
29546;SDS011;40782;47.264;11.330;2022-12-29T05:50:12;7.22;;;5.55;;
29546;SDS011;40782;47.264;11.330;2022-12-29T05:52:43;8.40;;;5.65;;
29546;SDS011;40782;47.264;11.330;2022-12-29T05:55:11;8.57;;;5.75;;
29546;SDS011;40782;47.264;11.330;2022-12-29T05:57:38;9.50;;;5.03;;
29546;SDS011;40782;47.264;11.330;2022-12-29T06:00:06;6.85;;;5.10;;
29546;SDS011;40782;47.264;11.330;2022-12-29T06:02:34;6.15;;;4.53;;
29546;SDS011;40782;47.264;11.330;2022-12-29T06:05:01;6.72;;;4.38;;
29546;SDS011;40782;47.264;11.330;2022-12-29T06:07:29;7.32;;;5.43;;
29546;SDS011;40782;47.264;11.330;2022-12-29T06:09:57;8.25;;;5.95;;
29546;SDS011;40782;47.264;11.330;2022-12-29T06:12:24;8.80;;;5.72;;
29546;SDS011;40782;47.264;11.330;2022-12-29T06:14:51;8.25;;;5.13;;
29546;SDS011;40782;47.264;11.330;2022-12-29T06:17:18;8.07;;;5.20;;
29546;SDS011;40782;47.264;11.330;2022-12-29T06:19:46;10.32;;;6.50;;
29546;SDS011;40782;47.264;11.330;2022-12-29T06:22:13;9.55;;;6.38;;
29546;SDS011;40782;47.264;11.330;2022-12-29T06:24:40;8.18;;;5.47;;
29546;SDS011;40782;47.264;11.330;2022-12-29T06:27:08;9.88;;;5.93;;
29546;SDS011;40782;47.264;11.330;2022-12-29T06:29:36;9.50;;;5.35;;
29546;SDS011;40782;47.264;11.330;2022-12-29T06:32:05;7.95;;;4.68;;
29546;SDS011;40782;47.264;11.330;2022-12-29T06:34:32;6.70;;;4.55;;
29546;SDS011;40782;47.264;11.330;2022-12-29T06:36:59;6.97;;;4.60;;
29546;SDS011;40782;47.264;11.330;2022-12-29T06:39:27;7.20;;;5.25;;
29546;SDS011;40782;47.264;11.330;2022-12-29T06:41:54;9.30;;;5.82;;
29546;SDS011;40782;47.264;11.330;2022-12-29T06:44:23;9.48;;;5.70;;
29546;SDS011;40782;47.264;11.330;2022-12-29T06:46:50;8.27;;;5.03;;
29546;SDS011;40782;47.264;11.330;2022-12-29T06:49:17;8.13;;;5.43;;
29546;SDS011;40782;47.264;11.330;2022-12-29T06:51:44;5.88;;;5.10;;
29546;SDS011;40782;47.264;11.330;2022-12-29T06:54:11;8.77;;;5.20;;
29546;SDS011;40782;47.264;11.330;2022-12-29T06:56:39;9.13;;;5.20;;
29546;SDS011;40782;47.264;11.330;2022-12-29T06:59:06;7.75;;;5.28;;
29546;SDS011;40782;47.264;11.330;2022-12-29T07:01:35;7.00;;;5.20;;
29546;SDS011;40782;47.264;11.330;2022-12-29T07:04:02;11.43;;;5.13;;
29546;SDS011;40782;47.264;11.330;2022-12-29T07:06:29;10.50;;;5.93;;
29546;SDS011;40782;47.264;11.330;2022-12-29T07:08:56;8.25;;;5.72;;
29546;SDS011;40782;47.264;11.330;2022-12-29T07:11:24;10.98;;;5.38;;
29546;SDS011;40782;47.264;11.330;2022-12-29T07:13:51;7.32;;;5.45;;
29546;SDS011;40782;47.264;11.330;2022-12-29T07:16:18;7.95;;;6.10;;
29546;SDS011;40782;47.264;11.330;2022-12-29T07:18:47;13.38;;;9.07;;
29546;SDS011;40782;47.264;11.330;2022-12-29T07:21:14;8.50;;;6.18;;
29546;SDS011;40782;47.264;11.330;2022-12-29T07:23:41;10.32;;;6.00;;
29546;SDS011;40782;47.264;11.330;2022-12-29T07:26:10;10.95;;;6.28;;
29546;SDS011;40782;47.264;11.330;2022-12-29T07:28:39;10.15;;;6.05;;
29546;SDS011;40782;47.264;11.330;2022-12-29T07:31:08;9.80;;;6.32;;
29546;SDS011;40782;47.264;11.330;2022-12-29T07:33:41;8.68;;;5.75;;
29546;SDS011;40782;47.264;11.330;2022-12-29T07:36:11;9.30;;;7.47;;
29546;SDS011;40782;47.264;11.330;2022-12-29T07:38:39;10.57;;;6.78;;
29546;SDS011;40782;47.264;11.330;2022-12-29T07:41:06;11.60;;;7.88;;
29546;SDS011;40782;47.264;11.330;2022-12-29T07:43:33;8.70;;;5.88;;
29546;SDS011;40782;47.264;11.330;2022-12-29T07:46:01;9.40;;;6.75;;
29546;SDS011;40782;47.264;11.330;2022-12-29T07:48:28;8.77;;;6.07;;
29546;SDS011;40782;47.264;11.330;2022-12-29T07:50:55;9.35;;;6.00;;
29546;SDS011;40782;47.264;11.330;2022-12-29T07:53:24;8.38;;;5.82;;
29546;SDS011;40782;47.264;11.330;2022-12-29T07:55:51;8.75;;;6.40;;
29546;SDS011;40782;47.264;11.330;2022-12-29T07:58:18;6.57;;;5.03;;
29546;SDS011;40782;47.264;11.330;2022-12-29T08:00:45;7.97;;;4.72;;
29546;SDS011;40782;47.264;11.330;2022-12-29T08:03:12;7.15;;;5.18;;
29546;SDS011;40782;47.264;11.330;2022-12-29T08:05:39;5.80;;;4.80;;
29546;SDS011;40782;47.264;11.330;2022-12-29T08:08:06;6.45;;;4.60;;
29546;SDS011;40782;47.264;11.330;2022-12-29T08:10:35;6.32;;;4.55;;
29546;SDS011;40782;47.264;11.330;2022-12-29T08:13:02;6.00;;;4.43;;
29546;SDS011;40782;47.264;11.330;2022-12-29T08:15:29;5.43;;;3.83;;
29546;SDS011;40782;47.264;11.330;2022-12-29T08:17:56;6.28;;;4.55;;
29546;SDS011;40782;47.264;11.330;2022-12-29T08:20:23;9.82;;;4.80;;
29546;SDS011;40782;47.264;11.330;2022-12-29T08:22:51;7.90;;;4.95;;
29546;SDS011;40782;47.264;11.330;2022-12-29T08:25:18;8.45;;;5.10;;
29546;SDS011;40782;47.264;11.330;2022-12-29T08:27:47;8.30;;;5.47;;
29546;SDS011;40782;47.264;11.330;2022-12-29T08:30:14;7.72;;;5.45;;
29546;SDS011;40782;47.264;11.330;2022-12-29T08:32:41;8.15;;;6.05;;
29546;SDS011;40782;47.264;11.330;2022-12-29T08:35:08;8.70;;;5.65;;
29546;SDS011;40782;47.264;11.330;2022-12-29T08:37:36;7.95;;;5.43;;
29546;SDS011;40782;47.264;11.330;2022-12-29T08:40:03;10.80;;;5.28;;
29546;SDS011;40782;47.264;11.330;2022-12-29T08:42:31;10.55;;;5.18;;
29546;SDS011;40782;47.264;11.330;2022-12-29T08:45:00;9.50;;;5.15;;
29546;SDS011;40782;47.264;11.330;2022-12-29T08:47:28;7.68;;;6.00;;
29546;SDS011;40782;47.264;11.330;2022-12-29T08:49:55;9.93;;;5.28;;
29546;SDS011;40782;47.264;11.330;2022-12-29T08:52:22;15.40;;;6.15;;
29546;SDS011;40782;47.264;11.330;2022-12-29T08:54:49;7.55;;;5.47;;
29546;SDS011;40782;47.264;11.330;2022-12-29T08:57:16;10.05;;;5.15;;
29546;SDS011;40782;47.264;11.330;2022-12-29T08:59:44;8.95;;;5.13;;
29546;SDS011;40782;47.264;11.330;2022-12-29T09:02:12;8.02;;;4.93;;
29546;SDS011;40782;47.264;11.330;2022-12-29T09:04:39;8.27;;;5.03;;
29546;SDS011;40782;47.264;11.330;2022-12-29T09:07:06;7.22;;;4.35;;
29546;SDS011;40782;47.264;11.330;2022-12-29T09:09:33;6.45;;;4.53;;
29546;SDS011;40782;47.264;11.330;2022-12-29T09:12:00;6.68;;;4.80;;
29546;SDS011;40782;47.264;11.330;2022-12-29T09:14:28;7.20;;;5.28;;
29546;SDS011;40782;47.264;11.330;2022-12-29T09:16:55;5.80;;;4.78;;
29546;SDS011;40782;47.264;11.330;2022-12-29T09:19:41;8.15;;;5.07;;
29546;SDS011;40782;47.264;11.330;2022-12-29T09:22:08;7.78;;;5.07;;
29546;SDS011;40782;47.264;11.330;2022-12-29T09:24:35;7.95;;;5.40;;
29546;SDS011;40782;47.264;11.330;2022-12-29T09:27:02;6.85;;;4.88;;
29546;SDS011;40782;47.264;11.330;2022-12-29T09:29:29;6.93;;;4.82;;
29546;SDS011;40782;47.264;11.330;2022-12-29T09:31:56;7.97;;;5.10;;
29546;SDS011;40782;47.264;11.330;2022-12-29T09:34:24;8.85;;;5.32;;
29546;SDS011;40782;47.264;11.330;2022-12-29T09:36:52;11.63;;;4.80;;
29546;SDS011;40782;47.264;11.330;2022-12-29T09:39:21;8.60;;;5.72;;
29546;SDS011;40782;47.264;11.330;2022-12-29T09:41:49;8.10;;;5.15;;
29546;SDS011;40782;47.264;11.330;2022-12-29T09:44:26;8.40;;;4.85;;
29546;SDS011;40782;47.264;11.330;2022-12-29T09:47:02;9.90;;;5.13;;
29546;SDS011;40782;47.264;11.330;2022-12-29T09:49:29;6.05;;;4.63;;
29546;SDS011;40782;47.264;11.330;2022-12-29T09:52:10;8.57;;;5.43;;
29546;SDS011;40782;47.264;11.330;2022-12-29T09:54:41;9.25;;;5.70;;
29546;SDS011;40782;47.264;11.330;2022-12-29T09:57:16;10.13;;;5.53;;
29546;SDS011;40782;47.264;11.330;2022-12-29T09:59:48;7.03;;;4.65;;
29546;SDS011;40782;47.264;11.330;2022-12-29T10:02:30;6.53;;;3.73;;
29546;SDS011;40782;47.264;11.330;2022-12-29T10:05:00;5.38;;;3.50;;
29546;SDS011;40782;47.264;11.330;2022-12-29T10:07:33;7.97;;;5.03;;
29546;SDS011;40782;47.264;11.330;2022-12-29T10:10:20;9.30;;;5.40;;
29546;SDS011;40782;47.264;11.330;2022-12-29T10:12:59;10.15;;;5.90;;
29546;SDS011;40782;47.264;11.330;2022-12-29T10:15:39;7.47;;;5.47;;
29546;SDS011;40782;47.264;11.330;2022-12-29T10:18:17;7.10;;;5.03;;
29546;SDS011;40782;47.264;11.330;2022-12-29T10:20:53;8.57;;;5.07;;
29546;SDS011;40782;47.264;11.330;2022-12-29T10:23:26;7.82;;;4.65;;
29546;SDS011;40782;47.264;11.330;2022-12-29T10:25:56;8.52;;;5.47;;
29546;SDS011;40782;47.264;11.330;2022-12-29T10:28:30;7.85;;;5.15;;
29546;SDS011;40782;47.264;11.330;2022-12-29T10:31:02;8.07;;;5.55;;
29546;SDS011;40782;47.264;11.330;2022-12-29T10:33:34;7.53;;;5.20;;
29546;SDS011;40782;47.264;11.330;2022-12-29T10:36:04;8.93;;;4.80;;
29546;SDS011;40782;47.264;11.330;2022-12-29T10:38:42;6.88;;;4.70;;
29546;SDS011;40782;47.264;11.330;2022-12-29T10:41:17;7.78;;;4.93;;
29546;SDS011;40782;47.264;11.330;2022-12-29T10:43:48;7.45;;;5.72;;
29546;SDS011;40782;47.264;11.330;2022-12-29T10:46:17;7.65;;;5.25;;
29546;SDS011;40782;47.264;11.330;2022-12-29T10:48:47;8.00;;;4.90;;
29546;SDS011;40782;47.264;11.330;2022-12-29T10:51:17;8.00;;;5.40;;
29546;SDS011;40782;47.264;11.330;2022-12-29T10:53:50;9.15;;;5.55;;
29546;SDS011;40782;47.264;11.330;2022-12-29T10:56:23;7.63;;;5.85;;
29546;SDS011;40782;47.264;11.330;2022-12-29T10:58:56;8.98;;;5.28;;
29546;SDS011;40782;47.264;11.330;2022-12-29T11:01:30;7.78;;;5.40;;
29546;SDS011;40782;47.264;11.330;2022-12-29T11:04:02;8.13;;;5.03;;
29546;SDS011;40782;47.264;11.330;2022-12-29T11:06:32;9.82;;;5.72;;
29546;SDS011;40782;47.264;11.330;2022-12-29T11:09:02;10.15;;;6.18;;
29546;SDS011;40782;47.264;11.330;2022-12-29T11:11:40;8.82;;;5.63;;
29546;SDS011;40782;47.264;11.330;2022-12-29T11:14:10;9.68;;;5.57;;
29546;SDS011;40782;47.264;11.330;2022-12-29T11:19:14;8.23;;;4.90;;
29546;SDS011;40782;47.264;11.330;2022-12-29T11:21:47;7.30;;;4.70;;
29546;SDS011;40782;47.264;11.330;2022-12-29T11:24:20;8.88;;;5.50;;
29546;SDS011;40782;47.264;11.330;2022-12-29T11:26:50;5.90;;;4.35;;
29546;SDS011;40782;47.264;11.330;2022-12-29T11:29:23;7.32;;;4.90;;
29546;SDS011;40782;47.264;11.330;2022-12-29T11:31:53;7.32;;;5.50;;
29546;SDS011;40782;47.264;11.330;2022-12-29T11:34:23;7.45;;;5.13;;
29546;SDS011;40782;47.264;11.330;2022-12-29T11:36:53;9.98;;;4.65;;
29546;SDS011;40782;47.264;11.330;2022-12-29T11:39:29;9.73;;;5.30;;
29546;SDS011;40782;47.264;11.330;2022-12-29T11:42:00;5.97;;;4.18;;
29546;SDS011;40782;47.264;11.330;2022-12-29T11:44:30;5.60;;;4.43;;
29546;SDS011;40782;47.264;11.330;2022-12-29T11:47:02;6.93;;;4.57;;
29546;SDS011;40782;47.264;11.330;2022-12-29T11:49:31;5.93;;;4.40;;
29546;SDS011;40782;47.264;11.330;2022-12-29T11:51:59;6.82;;;4.22;;
29546;SDS011;40782;47.264;11.330;2022-12-29T11:54:27;7.03;;;4.65;;
29546;SDS011;40782;47.264;11.330;2022-12-29T11:57:07;7.28;;;4.05;;
29546;SDS011;40782;47.264;11.330;2022-12-29T11:59:39;7.25;;;4.22;;
29546;SDS011;40782;47.264;11.330;2022-12-29T12:02:13;5.95;;;4.20;;
29546;SDS011;40782;47.264;11.330;2022-12-29T12:05:08;6.55;;;4.50;;
29546;SDS011;40782;47.264;11.330;2022-12-29T12:07:45;5.28;;;4.20;;
29546;SDS011;40782;47.264;11.330;2022-12-29T12:10:23;7.97;;;4.55;;
29546;SDS011;40782;47.264;11.330;2022-12-29T12:13:06;5.32;;;4.20;;
29546;SDS011;40782;47.264;11.330;2022-12-29T12:15:43;4.82;;;4.32;;
29546;SDS011;40782;47.264;11.330;2022-12-29T12:18:16;7.45;;;4.28;;
29546;SDS011;40782;47.264;11.330;2022-12-29T12:20:57;4.97;;;3.72;;
29546;SDS011;40782;47.264;11.330;2022-12-29T12:23:33;7.30;;;4.18;;
29546;SDS011;40782;47.264;11.330;2022-12-29T12:26:12;4.50;;;3.70;;
29546;SDS011;40782;47.264;11.330;2022-12-29T12:28:44;8.13;;;4.20;;
29546;SDS011;40782;47.264;11.330;2022-12-29T12:31:18;10.20;;;3.92;;
29546;SDS011;40782;47.264;11.330;2022-12-29T12:33:57;7.47;;;4.15;;
29546;SDS011;40782;47.264;11.330;2022-12-29T12:36:37;7.35;;;4.47;;
29546;SDS011;40782;47.264;11.330;2022-12-29T12:39:26;5.13;;;3.90;;
29546;SDS011;40782;47.264;11.330;2022-12-29T12:42:06;12.25;;;3.80;;
29546;SDS011;40782;47.264;11.330;2022-12-29T12:44:50;4.63;;;3.67;;
29546;SDS011;40782;47.264;11.330;2022-12-29T12:47:29;5.65;;;3.63;;
29546;SDS011;40782;47.264;11.330;2022-12-29T12:50:32;6.97;;;3.88;;
29546;SDS011;40782;47.264;11.330;2022-12-29T12:53:25;5.45;;;4.00;;
29546;SDS011;40782;47.264;11.330;2022-12-29T12:56:03;5.35;;;4.18;;
29546;SDS011;40782;47.264;11.330;2022-12-29T12:58:55;4.95;;;4.40;;
29546;SDS011;40782;47.264;11.330;2022-12-29T13:01:32;9.20;;;4.22;;
29546;SDS011;40782;47.264;11.330;2022-12-29T13:04:13;5.82;;;4.38;;
29546;SDS011;40782;47.264;11.330;2022-12-29T13:06:55;4.82;;;3.80;;
29546;SDS011;40782;47.264;11.330;2022-12-29T13:09:32;5.82;;;3.67;;
29546;SDS011;40782;47.264;11.330;2022-12-29T13:12:12;4.00;;;3.60;;
29546;SDS011;40782;47.264;11.330;2022-12-29T13:14:50;5.60;;;4.40;;
29546;SDS011;40782;47.264;11.330;2022-12-29T13:17:26;6.55;;;4.05;;
29546;SDS011;40782;47.264;11.330;2022-12-29T13:20:00;11.15;;;4.30;;
29546;SDS011;40782;47.264;11.330;2022-12-29T13:22:36;5.55;;;4.03;;
29546;SDS011;40782;47.264;11.330;2022-12-29T13:25:18;5.57;;;4.18;;
29546;SDS011;40782;47.264;11.330;2022-12-29T13:27:53;7.43;;;4.57;;
29546;SDS011;40782;47.264;11.330;2022-12-29T13:30:28;6.15;;;4.32;;
29546;SDS011;40782;47.264;11.330;2022-12-29T13:33:02;6.80;;;4.47;;
29546;SDS011;40782;47.264;11.330;2022-12-29T13:35:41;5.93;;;4.50;;
29546;SDS011;40782;47.264;11.330;2022-12-29T13:38:20;7.43;;;4.35;;
29546;SDS011;40782;47.264;11.330;2022-12-29T13:40:50;5.22;;;4.40;;
29546;SDS011;40782;47.264;11.330;2022-12-29T13:43:20;9.32;;;4.70;;
29546;SDS011;40782;47.264;11.330;2022-12-29T13:45:55;7.53;;;4.38;;
29546;SDS011;40782;47.264;11.330;2022-12-29T13:48:30;7.22;;;4.95;;
29546;SDS011;40782;47.264;11.330;2022-12-29T13:51:03;6.90;;;4.22;;
29546;SDS011;40782;47.264;11.330;2022-12-29T13:53:34;5.88;;;4.00;;
29546;SDS011;40782;47.264;11.330;2022-12-29T13:56:10;4.18;;;3.78;;
29546;SDS011;40782;47.264;11.330;2022-12-29T13:58:47;5.13;;;3.83;;
29546;SDS011;40782;47.264;11.330;2022-12-29T14:01:22;6.75;;;3.72;;
29546;SDS011;40782;47.264;11.330;2022-12-29T14:03:55;5.85;;;3.85;;
29546;SDS011;40782;47.264;11.330;2022-12-29T14:06:24;5.55;;;3.72;;
29546;SDS011;40782;47.264;11.330;2022-12-29T14:08:54;4.90;;;4.13;;
29546;SDS011;40782;47.264;11.330;2022-12-29T14:11:23;4.82;;;3.72;;
29546;SDS011;40782;47.264;11.330;2022-12-29T14:13:58;7.10;;;4.10;;
29546;SDS011;40782;47.264;11.330;2022-12-29T14:16:38;8.88;;;4.78;;
29546;SDS011;40782;47.264;11.330;2022-12-29T14:19:11;7.72;;;4.60;;
29546;SDS011;40782;47.264;11.330;2022-12-29T14:21:41;7.68;;;4.18;;
29546;SDS011;40782;47.264;11.330;2022-12-29T14:30:46;5.93;;;4.15;;
29546;SDS011;40782;47.264;11.330;2022-12-29T14:33:17;9.23;;;4.93;;
29546;SDS011;40782;47.264;11.330;2022-12-29T14:35:45;12.68;;;4.70;;
29546;SDS011;40782;47.264;11.330;2022-12-29T14:38:15;7.05;;;4.30;;
29546;SDS011;40782;47.264;11.330;2022-12-29T14:40:45;7.75;;;4.22;;
29546;SDS011;40782;47.264;11.330;2022-12-29T14:43:16;5.57;;;3.88;;
29546;SDS011;40782;47.264;11.330;2022-12-29T14:45:52;7.55;;;4.50;;
29546;SDS011;40782;47.264;11.330;2022-12-29T14:48:29;8.32;;;3.97;;
29546;SDS011;40782;47.264;11.330;2022-12-29T14:51:01;6.80;;;4.38;;
29546;SDS011;40782;47.264;11.330;2022-12-29T14:53:43;8.20;;;5.03;;
29546;SDS011;40782;47.264;11.330;2022-12-29T14:56:13;7.43;;;5.10;;
29546;SDS011;40782;47.264;11.330;2022-12-29T14:58:44;6.63;;;5.30;;
29546;SDS011;40782;47.264;11.330;2022-12-29T15:01:20;6.97;;;5.57;;
29546;SDS011;40782;47.264;11.330;2022-12-29T15:03:53;10.82;;;6.05;;
29546;SDS011;40782;47.264;11.330;2022-12-29T15:06:24;7.13;;;5.53;;
29546;SDS011;40782;47.264;11.330;2022-12-29T15:08:58;10.90;;;6.57;;
29546;SDS011;40782;47.264;11.330;2022-12-29T15:11:32;9.52;;;4.75;;